Mapaville, Missouri
Current Conditions -  °F | °C
As of 5:13 AM on Friday 19 Dec 2014 (Local Time) from KCPS Reporting Station
Overcast Overcast  
Wind Chill: 26°   Ceiling: 2900
Heat Index: 32°   Visibility: 9mi
Dew Point: 28°   Wind: 7mph
Humidity: 85%   Direction: 30°NNE
Pressure: 30.28"   Gusts: NA
Location:  38.25°N, 90.48°W
Report Text: KCPS 191113Z AUTO 03006KT 9SM OVC029 00/M02 A3028 RMK AO2 T00001022 TSNO
Loading
Personal Weather Stations






























Interactive Weather Map New forecast layout! Learn more

10-Day Weather Forecast

Advertisements
Track Severe Weather on mobile